createdAt,value
2022-09-18T00:03:04.899Z,-11398.78
2022-09-18T00:06:13.131Z,-11368.75
2022-09-18T00:09:19.279Z,-11381.03
2022-09-18T00:12:25.806Z,-11383.13
2022-09-18T00:15:32.015Z,-11388.47
2022-09-18T00:18:39.788Z,-11372.84
2022-09-18T00:21:48.541Z,-11390.59
2022-09-18T00:24:54.893Z,-11384.53
2022-09-18T00:28:01.065Z,-11384.81
2022-09-18T00:31:08.492Z,-11384.53
2022-09-18T00:34:17.122Z,-11395.41
2022-09-18T00:37:23.399Z,-11387.34
2022-09-18T00:40:30.090Z,-11382.00
2022-09-18T00:43:38.487Z,-11392.00
2022-09-18T00:46:46.896Z,-11397.22
2022-09-18T00:50:00.784Z,-11380.59
2022-09-18T00:53:07.261Z,-11381.44
2022-09-18T00:56:16.944Z,-11383.69
2022-09-18T00:59:27.943Z,-11389.75
2022-09-18T01:02:34.529Z,-11368.91
2022-09-18T01:06:01.843Z,-11383.97
2022-09-18T01:09:25.313Z,-11373.41
2022-09-18T01:12:41.347Z,-11383.41
2022-09-18T01:15:53.394Z,-11380.47
2022-09-18T01:19:12.208Z,-11391.88
2022-09-18T01:22:33.212Z,-11382.16
2022-09-18T01:25:51.872Z,-11382.44
2022-09-18T01:29:06.558Z,-11381.31
2022-09-18T01:32:21.580Z,-11359.19
2022-09-18T01:35:41.605Z,-11370.16
2022-09-18T01:38:53.557Z,-11365.38
2022-09-18T01:42:00.821Z,-11374.25
2022-09-18T01:45:11.434Z,-11371.28
2022-09-18T01:48:26.015Z,-11358.06
2022-09-18T01:51:38.175Z,-11370.44
2022-09-18T01:54:49.655Z,-11367.22
2022-09-18T01:57:59.775Z,-11369.88
2022-09-18T02:01:13.427Z,-11351.56
2022-09-18T02:04:25.451Z,-11365.66
2022-09-18T02:07:37.123Z,-11373.41
2022-09-18T02:10:46.731Z,-11371.72
2022-09-18T02:13:59.873Z,-11365.66
2022-09-18T02:17:13.858Z,-11365.81
2022-09-18T02:20:24.193Z,-11355.38
2022-09-18T02:23:31.604Z,-11371.00
2022-09-18T02:26:39.818Z,-11375.53
2022-09-18T02:29:47.908Z,-11369.03
2022-09-18T02:32:57.224Z,-11364.25
2022-09-18T02:36:27.648Z,-11367.34
2022-09-18T02:39:47.780Z,-11365.38
2022-09-18T02:43:09.817Z,-11365.94
2022-09-18T02:46:25.086Z,-11366.22
2022-09-18T02:49:43.795Z,-11359.19
2022-09-18T02:52:56.536Z,-11359.87
2022-09-18T02:56:06.902Z,-11367.22
2022-09-18T02:59:19.249Z,-11364.97
2022-09-18T03:02:26.869Z,-11357.50
2022-09-18T03:05:34.446Z,-11357.22
2022-09-18T03:08:40.540Z,-11364.97
2022-09-18T03:11:46.883Z,-11359.75
2022-09-18T03:14:53.568Z,-11357.63
2022-09-18T03:17:59.862Z,-11355.50
2022-09-18T03:21:07.923Z,-11367.06
2022-09-18T03:24:14.321Z,-11358.47
2022-09-18T03:27:20.603Z,-11370.72
2022-09-18T03:30:26.857Z,-11354.81
2022-09-18T03:33:33.123Z,-11357.50
2022-09-18T03:36:41.035Z,-11354.81
2022-09-18T03:39:48.360Z,-11342.13
2022-09-18T03:42:54.526Z,-11346.78
2022-09-18T03:46:00.947Z,-11353.41
2022-09-18T03:49:06.947Z,-11346.22
2022-09-18T03:52:14.319Z,-11341.16
2022-09-18T03:55:20.331Z,-11331.56
2022-09-18T03:58:26.444Z,-11345.94
2022-09-18T04:01:32.798Z,-11357.78
2022-09-18T04:04:38.695Z,-11345.38
2022-09-18T04:07:46.467Z,-11351.44
2022-09-18T04:10:52.520Z,-11349.88
2022-09-18T04:13:59.141Z,-11355.50
2022-09-18T04:17:05.966Z,-11350.44
2022-09-18T04:20:12.488Z,-11337.22
2022-09-18T04:23:20.708Z,-11361.00
2022-09-18T04:26:27.840Z,-11359.59
2022-09-18T04:29:34.063Z,-11365.94
2022-09-18T04:32:40.494Z,-11360.72
2022-09-18T04:35:46.721Z,-11373.56
2022-09-18T04:38:54.308Z,-11364.69
2022-09-18T04:42:00.789Z,-11378.06
2022-09-18T04:45:08.750Z,-11375.94
2022-09-18T04:48:14.540Z,-11361.44
2022-09-18T04:51:21.663Z,-11371.84
2022-09-18T04:54:29.025Z,-11372.84
2022-09-18T04:57:34.995Z,-11376.38
2022-09-18T05:00:41.635Z,-11379.75
2022-09-18T05:03:48.110Z,-11371.00
2022-09-18T05:06:54.495Z,-11363.41
2022-09-18T05:10:02.496Z,-11353.53
2022-09-18T05:13:09.035Z,-11353.97
2022-09-18T05:16:15.525Z,-11336.78
2022-09-18T05:19:21.772Z,-11322.84
2022-09-18T05:22:28.412Z,-11317.78
2022-09-18T05:25:36.148Z,-11318.47
2022-09-18T05:28:42.457Z,-11323.13
2022-09-18T05:31:48.934Z,-11322.84
2022-09-18T05:34:55.189Z,-11319.59
2022-09-18T05:38:01.929Z,-11316.66
2022-09-18T05:41:10.489Z,-11323.13
2022-09-18T05:44:16.868Z,-11308.34
2022-09-18T05:47:23.104Z,-11313.00
2022-09-18T05:50:31.172Z,-11315.25
2022-09-18T05:53:37.143Z,-11325.38
2022-09-18T05:56:44.587Z,-11324.81
2022-09-18T05:59:50.545Z,-11324.09
2022-09-18T06:02:57.696Z,-11327.50
2022-09-18T06:06:03.763Z,-11342.13
2022-09-18T06:09:09.913Z,-11318.63
2022-09-18T06:12:17.790Z,-11340.88
2022-09-18T06:15:23.988Z,-11355.09
2022-09-18T06:18:30.383Z,-11329.88
2022-09-18T06:21:36.715Z,-11334.53
2022-09-18T06:24:42.858Z,-11333.28
2022-09-18T06:27:54.695Z,-11350.88
2022-09-18T06:31:01.905Z,-11347.22
2022-09-18T06:34:08.153Z,-11342.00
2022-09-18T06:37:15.814Z,-11347.91
2022-09-18T06:40:22.071Z,-11343.41
2022-09-18T06:43:29.933Z,-11338.06
2022-09-18T06:46:36.217Z,-11335.09
2022-09-18T06:49:47.129Z,-11350.88
2022-09-18T06:52:53.562Z,-11336.94
2022-09-18T06:56:02.539Z,-11342.97
2022-09-18T06:59:10.206Z,-11357.06
2022-09-18T07:02:19.562Z,-11339.19
2022-09-18T07:05:27.551Z,-11342.97
2022-09-18T07:08:33.694Z,-11318.19
2022-09-18T07:11:40.357Z,-11323.69
2022-09-18T07:14:48.314Z,-11327.63
2022-09-18T07:17:57.324Z,-11323.41
2022-09-18T07:21:03.299Z,-11333.13
2022-09-18T07:24:09.910Z,-11335.78
2022-09-18T07:27:16.322Z,-11350.16
2022-09-18T07:30:24.132Z,-11353.53
2022-09-18T07:33:30.939Z,-11345.66
2022-09-18T07:36:37.005Z,-11346.50
2022-09-18T07:39:44.332Z,-11334.66
2022-09-18T07:42:50.624Z,-11339.47
2022-09-18T07:45:58.559Z,-11341.72
2022-09-18T07:49:04.969Z,-11353.81
2022-09-18T07:52:11.479Z,-11350.72
2022-09-18T07:55:19.692Z,-11362.97
2022-09-18T07:58:25.755Z,-11363.13
2022-09-18T08:01:34.780Z,-11347.34
2022-09-18T08:04:43.977Z,-11352.69
2022-09-18T08:07:50.075Z,-11346.22
2022-09-18T08:10:57.586Z,-11357.50
2022-09-18T08:14:03.738Z,-11367.06
2022-09-18T08:17:11.875Z,-11378.91
2022-09-18T08:20:18.711Z,-11375.53
2022-09-18T08:23:25.325Z,-11378.47
2022-09-18T08:26:31.392Z,-11381.31
2022-09-18T08:29:37.641Z,-11382.84
2022-09-18T08:32:45.276Z,-11397.38
2022-09-18T08:35:51.832Z,-11396.09
2022-09-18T08:38:57.795Z,-11390.47
2022-09-18T08:42:25.230Z,-11386.38
2022-09-18T08:45:43.654Z,-11384.25
2022-09-18T08:48:59.592Z,-11386.50
2022-09-18T08:52:11.821Z,-11385.38
2022-09-18T08:55:24.865Z,-11399.47
2022-09-18T08:58:34.534Z,-11393.28
2022-09-18T09:01:51.090Z,-11377.50
2022-09-18T09:05:02.821Z,-11380.88
2022-09-18T09:08:29.490Z,-11376.38
2022-09-18T09:11:43.784Z,-11379.75
2022-09-18T09:15:12.309Z,-11393.28
2022-09-18T09:18:22.738Z,-11388.75
2022-09-18T09:21:52.320Z,-11400.31
2022-09-18T09:25:08.271Z,-11391.72
2022-09-18T09:28:20.652Z,-11385.09
2022-09-18T09:31:34.133Z,-11385.09
2022-09-18T09:34:45.758Z,-11392.84
2022-09-18T09:37:54.323Z,-11386.22
2022-09-18T09:41:07.702Z,-11382.44
2022-09-18T09:44:26.439Z,-11404.28
2022-09-18T09:47:41.626Z,-11377.50
2022-09-18T09:50:54.744Z,-11405.97
2022-09-18T09:54:03.740Z,-11416.81
2022-09-18T09:57:21.871Z,-11397.50
2022-09-18T10:00:36.856Z,-11412.16
2022-09-18T10:03:57.462Z,-11410.34
2022-09-18T10:07:12.419Z,-11409.63
2022-09-18T10:10:29.224Z,-11414.41
2022-09-18T10:13:40.250Z,-11408.22
2022-09-18T10:16:50.226Z,-11403.72
2022-09-18T10:19:56.603Z,-11400.59
2022-09-18T10:23:12.221Z,-11404.97
2022-09-18T10:26:27.070Z,-11421.19
2022-09-18T10:29:35.909Z,-11406.94
2022-09-18T10:32:43.234Z,-11404.56
2022-09-18T10:35:52.767Z,-11426.13
2022-09-18T10:39:00.976Z,-11431.63
2022-09-18T10:42:16.705Z,-11417.38
2022-09-18T10:45:25.275Z,-11417.78
2022-09-18T10:48:31.623Z,-11419.22
2022-09-18T10:51:38.059Z,-11403.84
2022-09-18T10:55:13.811Z,-11407.50
2022-09-18T10:58:33.342Z,-11395.81
2022-09-18T11:01:42.685Z,-11424.84
2022-09-18T11:04:51.623Z,-11414.97
2022-09-18T11:08:00.740Z,-11414.28
2022-09-18T11:11:09.916Z,-11419.63
2022-09-18T11:14:23.383Z,-11399.75
2022-09-18T11:17:32.311Z,-11400.88
2022-09-18T11:20:42.615Z,-11409.34
2022-09-18T11:23:48.836Z,-11409.91
2022-09-18T11:26:57.218Z,-11404.13
2022-09-18T11:30:16.624Z,-11431.06
2022-09-18T11:33:27.513Z,-11421.47
2022-09-18T11:36:34.791Z,-11429.38
2022-09-18T11:39:45.236Z,-11414.13
2022-09-18T11:42:54.251Z,-11439.50
2022-09-18T11:46:11.560Z,-11417.50
2022-09-18T11:49:23.407Z,-11431.06
2022-09-18T11:52:32.652Z,-11422.31
2022-09-18T11:55:44.499Z,-11413.56
2022-09-18T11:58:55.063Z,-11430.22
2022-09-18T12:02:14.910Z,-11433.88
2022-09-18T12:05:25.458Z,-11435.00
2022-09-18T12:08:41.575Z,-11432.75
2022-09-18T12:11:56.409Z,-11425.41
2022-09-18T12:15:09.658Z,-11426.41
2022-09-18T12:18:24.846Z,-11446.69
2022-09-18T12:21:41.149Z,-11419.50
2022-09-18T12:24:47.786Z,-11436.84
2022-09-18T12:27:59.969Z,-11432.59
2022-09-18T12:31:12.180Z,-11428.25
2022-09-18T12:34:27.622Z,-11416.66
2022-09-18T12:37:48.366Z,-11430.34
2022-09-18T12:41:20.543Z,-11429.66
2022-09-18T12:44:43.566Z,-11429.50
2022-09-18T12:48:12.569Z,-11431.19
2022-09-18T12:51:33.009Z,-11424.72
2022-09-18T12:55:01.322Z,-11424.56
2022-09-18T12:58:21.452Z,-11423.00
2022-09-18T13:01:32.952Z,-11421.19
2022-09-18T13:04:44.771Z,-11428.66
2022-09-18T13:07:56.617Z,-11406.53
2022-09-18T13:11:10.523Z,-11432.47
2022-09-18T13:14:21.983Z,-11433.59
2022-09-18T13:17:35.291Z,-11413.16
2022-09-18T13:20:44.522Z,-11436.97
2022-09-18T13:23:54.065Z,-11433.44
2022-09-18T13:27:01.988Z,-11418.22
2022-09-18T13:30:25.717Z,-11429.94
2022-09-18T13:33:31.898Z,-11433.31
2022-09-18T13:36:41.852Z,-11446.69
2022-09-18T13:40:09.248Z,-11431.63
2022-09-18T13:43:38.816Z,-11438.09
2022-09-18T13:46:45.133Z,-11422.31
2022-09-18T13:49:53.877Z,-11440.50
2022-09-18T13:53:01.277Z,-11426.53
2022-09-18T13:56:10.028Z,-11413.56
2022-09-18T13:59:23.798Z,-11424.56
2022-09-18T14:02:35.713Z,-11411.03
2022-09-18T14:05:42.901Z,-11427.09
2022-09-18T14:08:49.194Z,-11416.38
2022-09-18T14:12:11.531Z,-11424.84
2022-09-18T14:15:25.844Z,-11442.91
2022-09-18T14:18:41.386Z,-11406.94
2022-09-18T14:21:47.939Z,-11414.13
2022-09-18T14:25:01.941Z,-11428.81
2022-09-18T14:28:09.685Z,-11419.50
2022-09-18T14:31:27.342Z,-11502.41
2022-09-18T14:34:40.673Z,-11472.78
2022-09-18T14:37:47.290Z,-11471.94
2022-09-18T14:40:57.514Z,-11494.66
2022-09-18T14:44:07.008Z,-11459.97
2022-09-18T14:47:21.905Z,-11405.81
2022-09-18T14:50:36.828Z,-11390.75
2022-09-18T14:53:44.971Z,-11377.63
2022-09-18T14:56:53.726Z,-11378.34
2022-09-18T15:00:03.435Z,-11385.38
2022-09-18T15:03:19.300Z,-11377.06
2022-09-18T15:06:29.859Z,-11374.97
2022-09-18T15:09:36.460Z,-11370.44
2022-09-18T15:12:44.627Z,-11383.41
2022-09-18T15:15:59.433Z,-11372.56
2022-09-18T15:19:17.813Z,-11368.19
2022-09-18T15:22:24.531Z,-11364.53
2022-09-18T15:25:34.661Z,-11368.19
2022-09-18T15:28:46.014Z,-11357.91
2022-09-18T15:31:54.997Z,-11341.72
2022-09-18T15:35:01.993Z,-11350.16
2022-09-18T15:38:16.453Z,-11345.66
2022-09-18T15:41:30.570Z,-11335.50
2022-09-18T15:45:18.312Z,-11336.94
2022-09-18T15:48:37.226Z,-11337.63
2022-09-18T15:51:43.209Z,-11330.88
2022-09-18T15:55:04.760Z,-11323.13
2022-09-18T15:58:35.631Z,-11314.25
2022-09-18T16:01:48.217Z,-11314.41
2022-09-18T16:04:56.606Z,-11307.06
2022-09-18T16:08:05.495Z,-11302.56
2022-09-18T16:11:37.539Z,-11299.63
2022-09-18T16:14:46.837Z,-11304.13
2022-09-18T16:17:55.780Z,-11299.91
2022-09-18T16:21:05.617Z,-11297.22
2022-09-18T16:24:28.576Z,-11290.47
2022-09-18T16:27:35.573Z,-11289.91
2022-09-18T16:30:42.642Z,-11284.41
2022-09-18T16:33:55.468Z,-11290.75
2022-09-18T16:37:06.137Z,-11283.56
2022-09-18T16:40:18.697Z,-11284.00
2022-09-18T16:43:25.167Z,-11276.94
2022-09-18T16:46:35.851Z,-11280.88
2022-09-18T16:49:45.647Z,-11285.41
2022-09-18T16:52:55.888Z,-11285.97
2022-09-18T16:56:08.260Z,-11283.13
2022-09-18T16:59:14.433Z,-11280.31
2022-09-18T17:02:25.465Z,-11278.22
2022-09-18T17:05:32.583Z,-11284.00
2022-09-18T17:08:43.021Z,-11283.84
2022-09-18T17:11:53.135Z,-11277.50
2022-09-18T17:14:59.362Z,-11278.22
2022-09-18T17:18:05.831Z,-11276.94
2022-09-18T17:21:12.982Z,-11273.56
2022-09-18T17:24:25.604Z,-11271.03
2022-09-18T17:27:31.942Z,-11269.34
2022-09-18T17:30:42.451Z,-11271.88
2022-09-18T17:33:49.022Z,-11269.63
2022-09-18T17:36:55.369Z,-11269.63
2022-09-18T17:40:03.393Z,-11269.22
2022-09-18T17:43:10.306Z,-11273.28
2022-09-18T17:46:16.430Z,-11267.66
2022-09-18T17:49:22.840Z,-11269.91
2022-09-18T17:52:29.203Z,-11274.56
2022-09-18T17:55:37.887Z,-11273.28
2022-09-18T17:58:44.737Z,-11266.53
2022-09-18T18:01:51.406Z,-11262.31
2022-09-18T18:04:58.002Z,-11258.50
2022-09-18T18:08:04.366Z,-11254.28
2022-09-18T18:11:14.706Z,-11259.50
2022-09-18T18:14:21.096Z,-11257.94
2022-09-18T18:17:27.147Z,-11262.31
2022-09-18T18:20:33.661Z,-11261.19
2022-09-18T18:23:40.198Z,-11261.59
2022-09-18T18:26:48.538Z,-11259.50
2022-09-18T18:29:55.786Z,-11247.97
2022-09-18T18:33:03.412Z,-11247.81
2022-09-18T18:36:12.001Z,-11248.38
2022-09-18T18:39:20.100Z,-11249.37
2022-09-18T18:42:28.383Z,-11247.53
2022-09-18T18:45:35.928Z,-11255.84
2022-09-18T18:48:43.334Z,-11246.00
2022-09-18T18:51:51.906Z,-11253.03
2022-09-18T18:54:59.654Z,-11253.16
2022-09-18T18:58:07.610Z,-11249.09
2022-09-18T19:01:16.217Z,-11252.59
2022-09-18T19:04:22.819Z,-11250.91
2022-09-18T19:07:29.398Z,-11246.56
2022-09-18T19:10:36.375Z,-11250.50
2022-09-18T19:13:45.014Z,-11251.19
2022-09-18T19:16:51.724Z,-11242.47
2022-09-18T19:19:58.749Z,-11245.56
2022-09-18T19:23:06.948Z,-11250.63
2022-09-18T19:26:14.954Z,-11241.75
2022-09-18T19:29:23.228Z,-11236.44
2022-09-18T19:32:29.534Z,-11240.34
2022-09-18T19:35:36.911Z,-11234.75
2022-09-18T19:38:43.290Z,-11238.94
2022-09-18T19:41:55.377Z,-11237.84
2022-09-18T19:45:05.861Z,-11232.75
2022-09-18T19:48:21.500Z,-11227.56
2022-09-18T19:51:29.651Z,-11222.06
2022-09-18T19:54:36.246Z,-11214.19
2022-09-18T19:57:42.802Z,-11211.66
2022-09-18T20:00:51.177Z,-11211.09
2022-09-18T20:03:58.898Z,-11210.25
2022-09-18T20:07:05.459Z,-11215.47
2022-09-18T20:10:14.477Z,-11202.53
2022-09-18T20:13:20.798Z,-11206.31
2022-09-18T20:16:28.780Z,-11201.25
2022-09-18T20:19:34.920Z,-11185.66
2022-09-18T20:22:41.378Z,-11198.87
2022-09-18T20:25:49.694Z,-11206.88
2022-09-18T20:28:56.316Z,-11199.28
2022-09-18T20:32:04.506Z,-11188.31
2022-09-18T20:35:11.229Z,-11190.44
2022-09-18T20:38:17.606Z,-11189.88
2022-09-18T20:41:24.414Z,-11198.16
2022-09-18T20:44:35.120Z,-11177.91
2022-09-18T20:47:42.487Z,-11178.34
2022-09-18T20:50:49.311Z,-11190.56
2022-09-18T20:53:57.507Z,-11175.38
2022-09-18T20:57:04.354Z,-11186.34
2022-09-18T21:00:12.783Z,-11182.41
2022-09-18T21:03:21.230Z,-11180.59
2022-09-18T21:06:31.794Z,-11178.19
2022-09-18T21:09:38.002Z,-11178.34
2022-09-18T21:12:44.399Z,-11177.06
2022-09-18T21:15:50.707Z,-11166.97
2022-09-18T21:19:00.470Z,-11165.84
2022-09-18T21:22:07.115Z,-11160.78
2022-09-18T21:25:13.306Z,-11164.44
2022-09-18T21:28:19.741Z,-11155.44
2022-09-18T21:31:27.159Z,-11145.47
2022-09-18T21:34:35.359Z,-11140.25
2022-09-18T21:37:43.318Z,-11124.81
2022-09-18T21:40:49.548Z,-11121.16
2022-09-18T21:43:57.561Z,-11126.50
2022-09-18T21:47:05.641Z,-11145.03
2022-09-18T21:50:13.257Z,-11158.81
2022-09-18T21:53:19.607Z,-11154.88
2022-09-18T21:56:26.814Z,-11155.56
2022-09-18T21:59:36.207Z,-11150.66
2022-09-18T22:02:43.428Z,-11160.50
2022-09-18T22:05:52.576Z,-11153.75
2022-09-18T22:09:00.606Z,-11153.47
2022-09-18T22:12:07.629Z,-11150.09
2022-09-18T22:15:13.999Z,-11133.66
2022-09-18T22:18:20.349Z,-11115.25
2022-09-18T22:21:29.822Z,-11091.25
2022-09-18T22:24:36.084Z,-11089.41
2022-09-18T22:27:43.898Z,-11100.50
2022-09-18T22:30:50.163Z,-11106.00
2022-09-18T22:33:58.106Z,-11113.28
2022-09-18T22:37:05.939Z,-11093.63
2022-09-18T22:40:12.583Z,-11120.59
2022-09-18T22:43:19.672Z,-11121.72
2022-09-18T22:46:27.767Z,-11132.53
2022-09-18T22:49:34.001Z,-11126.78
2022-09-18T22:52:42.259Z,-11128.19
2022-09-18T22:55:48.694Z,-11141.38
2022-09-18T22:58:56.880Z,-11129.03
2022-09-18T23:02:05.989Z,-11121.44
2022-09-18T23:05:12.396Z,-11126.22
2022-09-18T23:08:20.368Z,-11090.81
2022-09-18T23:11:28.255Z,-11090.53
2022-09-18T23:14:34.475Z,-11083.78
2022-09-18T23:17:42.244Z,-11082.13
2022-09-18T23:20:48.590Z,-11084.63
2022-09-18T23:23:57.695Z,-11105.56
2022-09-18T23:27:04.076Z,-11122.84
2022-09-18T23:30:11.402Z,-11114.97
2022-09-18T23:33:19.274Z,-11086.59
2022-09-18T23:36:29.199Z,-11093.34
2022-09-18T23:39:37.054Z,-11110.63
2022-09-18T23:42:43.033Z,-11066.13
2022-09-18T23:45:49.494Z,-11074.81
2022-09-18T23:48:56.122Z,-11092.22
2022-09-18T23:52:02.705Z,-11097.56
2022-09-18T23:55:10.883Z,-11098.81
2022-09-18T23:58:18.427Z,-11101.78
